Terminal Aerodrome Forecast
Issued by NWS

Home | Current Version | Previous Version | Text Only | Print | Product List | Glossary On
Versions: 1 2 3 4 5 6 7 8 9 10 11 12 13
845
FTUS45 KRIW 111122
TAFCPR
TAF
KCPR 111122Z 1112/1212 22014G22KT P6SM BKN250
     FM112300 22013KT P6SM SCT120 BKN250
     FM120200 22008KT P6SM BKN120=

USA.gov is the U.S. government's official web portal to all federal, state and local government web resources and services.